sensor_id;sensor_type;location;lat;lon;timestamp;pressure;altitude;pressure_sealevel;temperature;humidity
43155;BME280;34212;51.018;13.586;2022-08-20T00:02:25;97565.56;;;21.84;67.47
43155;BME280;34212;51.018;13.586;2022-08-20T00:07:27;97562.28;;;21.82;67.39
43155;BME280;34212;51.018;13.586;2022-08-20T00:12:29;97551.94;;;21.79;67.47
43155;BME280;34212;51.018;13.586;2022-08-20T00:17:31;97552.19;;;21.77;67.66
43155;BME280;34212;51.018;13.586;2022-08-20T00:22:38;97544.56;;;21.74;67.65
43155;BME280;34212;51.018;13.586;2022-08-20T00:27:39;97551.09;;;21.73;67.71
43155;BME280;34212;51.018;13.586;2022-08-20T00:32:42;97552.97;;;21.73;67.76
43155;BME280;34212;51.018;13.586;2022-08-20T00:37:43;97551.88;;;21.68;67.78
43155;BME280;34212;51.018;13.586;2022-08-20T00:42:46;97555.09;;;21.65;67.84
43155;BME280;34212;51.018;13.586;2022-08-20T00:47:48;97548.78;;;21.60;68.03
43155;BME280;34212;51.018;13.586;2022-08-20T00:52:51;97548.72;;;21.55;68.13
43155;BME280;34212;51.018;13.586;2022-08-20T00:57:55;97556.50;;;21.46;68.28
43155;BME280;34212;51.018;13.586;2022-08-20T01:03:02;97561.09;;;21.40;68.48
43155;BME280;34212;51.018;13.586;2022-08-20T01:08:04;97557.28;;;21.41;68.48
43155;BME280;34212;51.018;13.586;2022-08-20T01:13:09;97549.41;;;21.40;68.40
43155;BME280;34212;51.018;13.586;2022-08-20T01:18:12;97545.56;;;21.36;68.59
43155;BME280;34212;51.018;13.586;2022-08-20T01:23:19;97545.47;;;21.31;68.61
43155;BME280;34212;51.018;13.586;2022-08-20T01:33:32;97559.00;;;21.26;68.78
43155;BME280;34212;51.018;13.586;2022-08-20T01:38:33;97559.00;;;21.26;69.04
43155;BME280;34212;51.018;13.586;2022-08-20T01:43:34;97563.28;;;21.21;69.11
43155;BME280;34212;51.018;13.586;2022-08-20T01:48:39;97564.84;;;21.17;69.09
43155;BME280;34212;51.018;13.586;2022-08-20T01:53:45;97549.09;;;21.14;69.42
43155;BME280;34212;51.018;13.586;2022-08-20T01:58:48;97565.88;;;21.11;69.42
43155;BME280;34212;51.018;13.586;2022-08-20T02:03:59;97559.31;;;21.07;69.69
43155;BME280;34212;51.018;13.586;2022-08-20T02:09:03;97560.34;;;21.01;69.77
43155;BME280;34212;51.018;13.586;2022-08-20T02:14:06;97560.03;;;20.97;69.76
43155;BME280;34212;51.018;13.586;2022-08-20T02:19:10;97566.78;;;20.95;69.94
43155;BME280;34212;51.018;13.586;2022-08-20T02:24:13;97563.47;;;20.93;70.15
43155;BME280;34212;51.018;13.586;2022-08-20T02:29:15;97569.47;;;20.95;70.17
43155;BME280;34212;51.018;13.586;2022-08-20T02:34:16;97562.44;;;20.94;70.21
43155;BME280;34212;51.018;13.586;2022-08-20T02:39:23;97559.94;;;20.92;70.28
43155;BME280;34212;51.018;13.586;2022-08-20T02:44:26;97560.78;;;20.93;70.34
43155;BME280;34212;51.018;13.586;2022-08-20T02:49:28;97556.44;;;20.92;70.56
43155;BME280;34212;51.018;13.586;2022-08-20T02:54:29;97560.22;;;20.91;70.79
43155;BME280;34212;51.018;13.586;2022-08-20T02:59:31;97546.59;;;20.86;70.94
43155;BME280;34212;51.018;13.586;2022-08-20T03:04:32;97538.34;;;20.75;71.31
43155;BME280;34212;51.018;13.586;2022-08-20T03:09:33;97539.34;;;20.69;71.42
43155;BME280;34212;51.018;13.586;2022-08-20T03:14:36;97533.34;;;20.67;71.61
43155;BME280;34212;51.018;13.586;2022-08-20T03:19:38;97531.16;;;20.64;71.86
43155;BME280;34212;51.018;13.586;2022-08-20T03:24:39;97535.34;;;20.55;71.85
43155;BME280;34212;51.018;13.586;2022-08-20T03:29:40;97534.13;;;20.46;72.06
43155;BME280;34212;51.018;13.586;2022-08-20T03:34:42;97535.38;;;20.38;72.60
43155;BME280;34212;51.018;13.586;2022-08-20T03:39:43;97536.38;;;20.32;72.62
43155;BME280;34212;51.018;13.586;2022-08-20T03:44:45;97533.34;;;20.28;73.25
43155;BME280;34212;51.018;13.586;2022-08-20T03:49:59;97549.59;;;20.28;73.76
43155;BME280;34212;51.018;13.586;2022-08-20T03:55:01;97550.31;;;20.24;74.24
43155;BME280;34212;51.018;13.586;2022-08-20T04:00:03;97554.34;;;20.21;74.52
43155;BME280;34212;51.018;13.586;2022-08-20T04:05:11;97558.38;;;20.19;74.84
43155;BME280;34212;51.018;13.586;2022-08-20T04:10:13;97551.56;;;20.16;74.92
43155;BME280;34212;51.018;13.586;2022-08-20T04:15:15;97553.69;;;20.14;74.77
43155;BME280;34212;51.018;13.586;2022-08-20T04:20:19;97560.19;;;20.13;74.70
43155;BME280;34212;51.018;13.586;2022-08-20T04:25:22;97555.59;;;20.14;75.20
43155;BME280;34212;51.018;13.586;2022-08-20T04:30:24;97564.44;;;20.09;75.36
43155;BME280;34212;51.018;13.586;2022-08-20T04:35:26;97563.56;;;20.03;75.62
43155;BME280;34212;51.018;13.586;2022-08-20T04:40:28;97567.00;;;19.99;75.71
43155;BME280;34212;51.018;13.586;2022-08-20T04:45:50;97578.31;;;19.96;77.09
43155;BME280;34212;51.018;13.586;2022-08-20T04:50:55;97575.06;;;19.94;77.32
43155;BME280;34212;51.018;13.586;2022-08-20T04:55:59;97584.69;;;19.90;77.55
43155;BME280;34212;51.018;13.586;2022-08-20T05:01:03;97583.22;;;19.82;77.35
43155;BME280;34212;51.018;13.586;2022-08-20T05:06:06;97578.84;;;19.64;77.31
43155;BME280;34212;51.018;13.586;2022-08-20T05:11:08;97581.59;;;19.52;78.02
43155;BME280;34212;51.018;13.586;2022-08-20T05:16:29;97587.41;;;19.44;78.37
43155;BME280;34212;51.018;13.586;2022-08-20T05:21:33;97583.78;;;19.38;78.73
43155;BME280;34212;51.018;13.586;2022-08-20T05:26:34;97590.00;;;19.39;78.51
43155;BME280;34212;51.018;13.586;2022-08-20T05:31:35;97592.44;;;19.41;78.77
43155;BME280;34212;51.018;13.586;2022-08-20T05:36:43;97577.63;;;19.43;79.09
43155;BME280;34212;51.018;13.586;2022-08-20T05:41:47;97590.44;;;19.48;79.29
43155;BME280;34212;51.018;13.586;2022-08-20T05:46:50;97588.88;;;19.52;79.17
43155;BME280;34212;51.018;13.586;2022-08-20T05:51:52;97596.28;;;19.56;79.46
43155;BME280;34212;51.018;13.586;2022-08-20T05:56:53;97608.47;;;19.59;79.47
43155;BME280;34212;51.018;13.586;2022-08-20T06:01:57;97612.03;;;19.59;79.49
43155;BME280;34212;51.018;13.586;2022-08-20T06:07:03;97614.97;;;19.58;79.69
43155;BME280;34212;51.018;13.586;2022-08-20T06:12:05;97611.19;;;19.59;79.94
43155;BME280;34212;51.018;13.586;2022-08-20T06:17:12;97621.44;;;19.57;79.78
43155;BME280;34212;51.018;13.586;2022-08-20T06:22:15;97629.22;;;19.53;79.83
43155;BME280;34212;51.018;13.586;2022-08-20T06:27:21;97630.53;;;19.51;79.74
43155;BME280;34212;51.018;13.586;2022-08-20T06:32:23;97637.44;;;19.47;79.90
43155;BME280;34212;51.018;13.586;2022-08-20T06:37:33;97646.97;;;19.49;80.01
43155;BME280;34212;51.018;13.586;2022-08-20T06:42:37;97648.84;;;19.49;80.09
43155;BME280;34212;51.018;13.586;2022-08-20T06:47:48;97648.84;;;19.49;79.97
43155;BME280;34212;51.018;13.586;2022-08-20T06:52:50;97651.56;;;19.49;80.08
43155;BME280;34212;51.018;13.586;2022-08-20T06:58:00;97643.22;;;19.50;80.00
43155;BME280;34212;51.018;13.586;2022-08-20T07:03:03;97646.16;;;19.49;79.95
43155;BME280;34212;51.018;13.586;2022-08-20T07:08:05;97647.22;;;19.48;80.22
43155;BME280;34212;51.018;13.586;2022-08-20T07:13:06;97661.78;;;19.47;80.33
43155;BME280;34212;51.018;13.586;2022-08-20T07:18:08;97659.69;;;19.49;80.15
43155;BME280;34212;51.018;13.586;2022-08-20T07:23:09;97658.38;;;19.51;80.35
43155;BME280;34212;51.018;13.586;2022-08-20T07:28:13;97664.59;;;19.52;80.30
43155;BME280;34212;51.018;13.586;2022-08-20T07:33:16;97669.53;;;19.55;80.33
43155;BME280;34212;51.018;13.586;2022-08-20T07:38:20;97668.38;;;19.51;80.22
43155;BME280;34212;51.018;13.586;2022-08-20T07:43:24;97679.69;;;19.48;79.94
43155;BME280;34212;51.018;13.586;2022-08-20T07:48:27;97667.19;;;19.47;80.29
43155;BME280;34212;51.018;13.586;2022-08-20T07:53:33;97677.19;;;19.46;80.37
43155;BME280;34212;51.018;13.586;2022-08-20T07:58:38;97688.84;;;19.47;80.26
43155;BME280;34212;51.018;13.586;2022-08-20T08:03:40;97703.28;;;19.52;80.45
43155;BME280;34212;51.018;13.586;2022-08-20T08:08:51;97693.66;;;19.56;80.47
43155;BME280;34212;51.018;13.586;2022-08-20T08:13:54;97700.22;;;19.60;80.48
43155;BME280;34212;51.018;13.586;2022-08-20T08:18:56;97699.63;;;19.70;80.83
43155;BME280;34212;51.018;13.586;2022-08-20T08:23:58;97703.59;;;19.79;80.54
43155;BME280;34212;51.018;13.586;2022-08-20T08:29:00;97717.22;;;19.84;80.84
43155;BME280;34212;51.018;13.586;2022-08-20T08:34:02;97709.66;;;19.87;80.72
43155;BME280;34212;51.018;13.586;2022-08-20T08:39:04;97723.91;;;19.94;80.90
43155;BME280;34212;51.018;13.586;2022-08-20T08:44:08;97723.63;;;19.95;80.93
43155;BME280;34212;51.018;13.586;2022-08-20T08:49:16;97723.63;;;19.95;80.72
43155;BME280;34212;51.018;13.586;2022-08-20T08:54:19;97726.94;;;19.97;80.60
43155;BME280;34212;51.018;13.586;2022-08-20T08:59:22;97715.84;;;19.99;80.94
43155;BME280;34212;51.018;13.586;2022-08-20T09:04:35;97725.13;;;20.03;81.07
43155;BME280;34212;51.018;13.586;2022-08-20T09:09:39;97731.72;;;20.07;80.92
43155;BME280;34212;51.018;13.586;2022-08-20T09:14:44;97737.69;;;20.09;80.95
43155;BME280;34212;51.018;13.586;2022-08-20T09:19:49;97731.22;;;20.10;80.87
43155;BME280;34212;51.018;13.586;2022-08-20T09:24:53;97728.97;;;20.19;80.98
43155;BME280;34212;51.018;13.586;2022-08-20T09:29:55;97728.53;;;20.27;81.08
43155;BME280;34212;51.018;13.586;2022-08-20T09:34:57;97722.97;;;20.34;80.82
43155;BME280;34212;51.018;13.586;2022-08-20T09:40:00;97721.44;;;20.38;80.92
43155;BME280;34212;51.018;13.586;2022-08-20T09:45:03;97722.31;;;20.43;80.84
43155;BME280;34212;51.018;13.586;2022-08-20T09:50:11;97734.41;;;20.52;80.93
43155;BME280;34212;51.018;13.586;2022-08-20T09:55:20;97726.97;;;20.60;80.91
43155;BME280;34212;51.018;13.586;2022-08-20T10:00:23;97725.97;;;20.66;80.76
43155;BME280;34212;51.018;13.586;2022-08-20T10:05:26;97743.13;;;20.71;80.84
43155;BME280;34212;51.018;13.586;2022-08-20T10:10:28;97739.38;;;20.72;80.62
43155;BME280;34212;51.018;13.586;2022-08-20T10:15:31;97744.78;;;20.72;80.55
43155;BME280;34212;51.018;13.586;2022-08-20T10:20:34;97743.97;;;20.72;80.70
43155;BME280;34212;51.018;13.586;2022-08-20T10:25:35;97749.38;;;20.72;80.70
43155;BME280;34212;51.018;13.586;2022-08-20T10:30:38;97750.19;;;20.72;80.60
43155;BME280;34212;51.018;13.586;2022-08-20T10:35:40;97757.50;;;20.72;80.67
43155;BME280;34212;51.018;13.586;2022-08-20T10:40:42;97756.66;;;20.71;80.53
43155;BME280;34212;51.018;13.586;2022-08-20T10:45:52;97758.56;;;20.71;80.58
43155;BME280;34212;51.018;13.586;2022-08-20T10:50:54;97760.72;;;20.69;80.64
43155;BME280;34212;51.018;13.586;2022-08-20T10:55:57;97766.63;;;20.66;80.70
43155;BME280;34212;51.018;13.586;2022-08-20T11:00:59;97771.13;;;20.60;80.53
43155;BME280;34212;51.018;13.586;2022-08-20T11:06:01;97762.91;;;20.55;80.58
43155;BME280;34212;51.018;13.586;2022-08-20T11:11:05;97763.63;;;20.50;80.76
43155;BME280;34212;51.018;13.586;2022-08-20T11:16:07;97755.72;;;20.49;80.52
43155;BME280;34212;51.018;13.586;2022-08-20T11:21:10;97765.75;;;20.48;80.84
43155;BME280;34212;51.018;13.586;2022-08-20T11:26:18;97771.44;;;20.47;80.71
43155;BME280;34212;51.018;13.586;2022-08-20T11:31:22;97772.47;;;20.46;80.97
43155;BME280;34212;51.018;13.586;2022-08-20T11:36:25;97785.09;;;20.40;81.15
43155;BME280;34212;51.018;13.586;2022-08-20T11:41:26;97783.72;;;20.38;81.08
43155;BME280;34212;51.018;13.586;2022-08-20T11:46:28;97793.97;;;20.36;81.24
43155;BME280;34212;51.018;13.586;2022-08-20T11:51:33;97788.28;;;20.37;81.39
43155;BME280;34212;51.018;13.586;2022-08-20T11:56:51;97789.69;;;20.40;81.42
43155;BME280;34212;51.018;13.586;2022-08-20T12:01:53;97799.72;;;20.39;81.39
43155;BME280;34212;51.018;13.586;2022-08-20T12:07:07;97801.81;;;20.37;81.46
43155;BME280;34212;51.018;13.586;2022-08-20T12:12:11;97798.31;;;20.37;81.49
43155;BME280;34212;51.018;13.586;2022-08-20T12:17:15;97806.19;;;20.38;81.44
43155;BME280;34212;51.018;13.586;2022-08-20T12:22:22;97801.00;;;20.37;81.62
43155;BME280;34212;51.018;13.586;2022-08-20T12:27:27;97806.44;;;20.37;81.59
43155;BME280;34212;51.018;13.586;2022-08-20T12:32:29;97805.38;;;20.38;81.75
43155;BME280;34212;51.018;13.586;2022-08-20T12:37:32;97805.94;;;20.40;81.75
43155;BME280;34212;51.018;13.586;2022-08-20T12:42:33;97811.63;;;20.38;81.44
43155;BME280;34212;51.018;13.586;2022-08-20T12:47:37;97816.22;;;20.38;81.77
43155;BME280;34212;51.018;13.586;2022-08-20T12:52:39;97813.84;;;20.41;82.04
43155;BME280;34212;51.018;13.586;2022-08-20T12:57:48;97814.16;;;20.45;82.43
43155;BME280;34212;51.018;13.586;2022-08-20T13:02:52;97819.69;;;20.50;82.17
43155;BME280;34212;51.018;13.586;2022-08-20T13:07:55;97815.31;;;20.49;81.91
43155;BME280;34212;51.018;13.586;2022-08-20T13:12:58;97815.00;;;20.45;81.90
43155;BME280;34212;51.018;13.586;2022-08-20T13:18:01;97805.47;;;20.43;82.09
43155;BME280;34212;51.018;13.586;2022-08-20T13:23:04;97812.19;;;20.40;82.23
43155;BME280;34212;51.018;13.586;2022-08-20T13:28:07;97808.91;;;20.38;82.31
43155;BME280;34212;51.018;13.586;2022-08-20T13:33:10;97803.00;;;20.41;82.30
43155;BME280;34212;51.018;13.586;2022-08-20T13:38:12;97808.97;;;20.43;82.29
43155;BME280;34212;51.018;13.586;2022-08-20T13:43:14;97817.47;;;20.47;82.23
43155;BME280;34212;51.018;13.586;2022-08-20T13:48:16;97822.41;;;20.50;82.39
43155;BME280;34212;51.018;13.586;2022-08-20T13:53:19;97821.09;;;20.52;82.39
43155;BME280;34212;51.018;13.586;2022-08-20T13:58:21;97817.81;;;20.50;82.30
43155;BME280;34212;51.018;13.586;2022-08-20T14:03:23;97807.78;;;20.51;82.25
43155;BME280;34212;51.018;13.586;2022-08-20T14:08:26;97820.88;;;20.54;82.09
43155;BME280;34212;51.018;13.586;2022-08-20T14:13:27;97816.53;;;20.53;82.05
43155;BME280;34212;51.018;13.586;2022-08-20T14:18:30;97814.28;;;20.50;82.19
43155;BME280;34212;51.018;13.586;2022-08-20T14:23:32;97811.56;;;20.50;82.29
43155;BME280;34212;51.018;13.586;2022-08-20T14:28:38;97807.78;;;20.51;82.01
43155;BME280;34212;51.018;13.586;2022-08-20T14:33:40;97804.03;;;20.52;82.03
43155;BME280;34212;51.018;13.586;2022-08-20T14:38:46;97810.25;;;20.52;82.17
43155;BME280;34212;51.018;13.586;2022-08-20T14:43:47;97812.97;;;20.52;82.05
43155;BME280;34212;51.018;13.586;2022-08-20T14:48:49;97806.16;;;20.50;82.15
43155;BME280;34212;51.018;13.586;2022-08-20T14:53:53;97801.56;;;20.50;81.96
43155;BME280;34212;51.018;13.586;2022-08-20T14:58:55;97806.97;;;20.50;81.99
43155;BME280;34212;51.018;13.586;2022-08-20T15:03:58;97808.00;;;20.49;81.89
43155;BME280;34212;51.018;13.586;2022-08-20T15:09:00;97809.44;;;20.52;82.26
43155;BME280;34212;51.018;13.586;2022-08-20T15:14:08;97807.16;;;20.61;82.32
43155;BME280;34212;51.018;13.586;2022-08-20T15:19:11;97803.47;;;20.67;82.25
43155;BME280;34212;51.018;13.586;2022-08-20T15:24:13;97802.66;;;20.66;81.98
43155;BME280;34212;51.018;13.586;2022-08-20T15:29:20;97808.91;;;20.67;82.20
43155;BME280;34212;51.018;13.586;2022-08-20T15:34:24;97807.59;;;20.69;81.98
43155;BME280;34212;51.018;13.586;2022-08-20T15:39:26;97814.06;;;20.68;81.85
43155;BME280;34212;51.018;13.586;2022-08-20T15:44:28;97815.13;;;20.67;81.82
43155;BME280;34212;51.018;13.586;2022-08-20T15:49:30;97809.97;;;20.66;81.95
43155;BME280;34212;51.018;13.586;2022-08-20T15:54:32;97817.75;;;20.62;81.85
43155;BME280;34212;51.018;13.586;2022-08-20T15:59:48;97820.97;;;20.59;81.94
43155;BME280;34212;51.018;13.586;2022-08-20T16:15:29;97822.88;;;20.47;81.98
43155;BME280;34212;51.018;13.586;2022-08-20T16:20:38;97825.94;;;20.50;82.04
43155;BME280;34212;51.018;13.586;2022-08-20T16:30:50;97825.53;;;20.59;81.95
43155;BME280;34212;51.018;13.586;2022-08-20T16:35:56;97828.84;;;20.61;81.96
43155;BME280;34212;51.018;13.586;2022-08-20T16:41:46;97842.66;;;20.59;81.73
43155;BME280;34212;51.018;13.586;2022-08-20T16:46:25;97846.41;;;20.58;81.68
43155;BME280;34212;51.018;13.586;2022-08-20T16:56:34;97845.84;;;20.56;81.52
43155;BME280;34212;51.018;13.586;2022-08-20T17:01:35;97859.38;;;20.56;81.67
43155;BME280;34212;51.018;13.586;2022-08-20T17:11:40;97868.56;;;20.55;81.60
43155;BME280;34212;51.018;13.586;2022-08-20T17:16:43;97860.09;;;20.51;81.45
43155;BME280;34212;51.018;13.586;2022-08-20T17:21:45;97860.31;;;20.50;81.41
43155;BME280;34212;51.018;13.586;2022-08-20T17:26:55;97863.25;;;20.48;81.42
43155;BME280;34212;51.018;13.586;2022-08-20T17:32:08;97871.66;;;20.47;81.31
43155;BME280;34212;51.018;13.586;2022-08-20T17:42:24;97867.38;;;20.51;81.27
43155;BME280;34212;51.018;13.586;2022-08-20T17:47:29;97868.00;;;20.53;81.39
43155;BME280;34212;51.018;13.586;2022-08-20T17:52:38;97873.50;;;20.58;81.33
43155;BME280;34212;51.018;13.586;2022-08-20T17:57:42;97881.13;;;20.61;81.36
43155;BME280;34212;51.018;13.586;2022-08-20T18:02:43;97896.31;;;20.62;81.34
43155;BME280;34212;51.018;13.586;2022-08-20T18:13:00;97895.84;;;20.65;81.30
43155;BME280;34212;51.018;13.586;2022-08-20T18:23:27;97885.69;;;20.72;81.32
43155;BME280;34212;51.018;13.586;2022-08-20T18:28:31;97896.28;;;20.74;81.22
43155;BME280;34212;51.018;13.586;2022-08-20T18:33:39;97895.47;;;20.73;80.91
43155;BME280;34212;51.018;13.586;2022-08-20T18:38:43;97910.56;;;20.69;80.91
43155;BME280;34212;51.018;13.586;2022-08-20T18:44:02;97902.09;;;20.66;81.14
43155;BME280;34212;51.018;13.586;2022-08-20T18:49:06;97902.31;;;20.64;81.09
43155;BME280;34212;51.018;13.586;2022-08-20T18:54:18;97905.84;;;20.65;81.10
43155;BME280;34212;51.018;13.586;2022-08-20T18:59:21;97908.34;;;20.66;80.96
43155;BME280;34212;51.018;13.586;2022-08-20T19:04:27;97907.03;;;20.69;81.16
43155;BME280;34212;51.018;13.586;2022-08-20T19:14:59;97914.44;;;20.73;80.79
43155;BME280;34212;51.018;13.586;2022-08-20T19:20:03;97912.19;;;20.70;81.01
43155;BME280;34212;51.018;13.586;2022-08-20T19:25:06;97915.97;;;20.69;81.08
43155;BME280;34212;51.018;13.586;2022-08-20T19:30:08;97916.47;;;20.66;81.01
43155;BME280;34212;51.018;13.586;2022-08-20T19:35:15;97918.69;;;20.69;80.87
43155;BME280;34212;51.018;13.586;2022-08-20T19:40:21;97906.19;;;20.68;81.07
43155;BME280;34212;51.018;13.586;2022-08-20T19:45:35;97905.38;;;20.68;80.95
43155;BME280;34212;51.018;13.586;2022-08-20T19:55:38;97904.56;;;20.67;81.13
43155;BME280;34212;51.018;13.586;2022-08-20T20:00:43;97903.47;;;20.68;81.15
43155;BME280;34212;51.018;13.586;2022-08-20T20:05:49;97907.03;;;20.69;81.07
43155;BME280;34212;51.018;13.586;2022-08-20T20:10:52;97902.44;;;20.69;81.00
43155;BME280;34212;51.018;13.586;2022-08-20T20:15:54;97899.47;;;20.71;81.13
43155;BME280;34212;51.018;13.586;2022-08-20T20:21:06;97904.88;;;20.71;81.15
43155;BME280;34212;51.018;13.586;2022-08-20T20:26:10;97900.78;;;20.68;81.08
43155;BME280;34212;51.018;13.586;2022-08-20T20:31:23;97898.31;;;20.67;81.12
43155;BME280;34212;51.018;13.586;2022-08-20T20:36:35;97890.41;;;20.65;81.18
43155;BME280;34212;51.018;13.586;2022-08-20T20:41:37;97880.06;;;20.62;81.11
43155;BME280;34212;51.018;13.586;2022-08-20T20:46:38;97881.72;;;20.63;81.15
43155;BME280;34212;51.018;13.586;2022-08-20T20:51:40;97881.13;;;20.61;80.98
43155;BME280;34212;51.018;13.586;2022-08-20T20:56:42;97875.97;;;20.60;80.88
43155;BME280;34212;51.018;13.586;2022-08-20T21:01:44;97868.06;;;20.58;81.01
43155;BME280;34212;51.018;13.586;2022-08-20T21:06:51;97867.75;;;20.55;81.16
43155;BME280;34212;51.018;13.586;2022-08-20T21:11:53;97866.94;;;20.54;81.04
43155;BME280;34212;51.018;13.586;2022-08-20T21:16:55;97863.63;;;20.52;81.03
43155;BME280;34212;51.018;13.586;2022-08-20T21:21:58;97859.25;;;20.51;81.07
43155;BME280;34212;51.018;13.586;2022-08-20T21:26:59;97858.91;;;20.47;81.13
43155;BME280;34212;51.018;13.586;2022-08-20T21:32:03;97850.47;;;20.44;81.05
43155;BME280;34212;51.018;13.586;2022-08-20T21:37:05;97848.25;;;20.41;81.29
43155;BME280;34212;51.018;13.586;2022-08-20T21:42:07;97865.53;;;20.40;81.46
43155;BME280;34212;51.018;13.586;2022-08-20T21:47:29;97857.66;;;20.38;81.11
43155;BME280;34212;51.018;13.586;2022-08-20T21:52:31;97854.13;;;20.38;81.40
43155;BME280;34212;51.018;13.586;2022-08-20T21:57:35;97858.13;;;20.35;81.29
43155;BME280;34212;51.018;13.586;2022-08-20T22:02:37;97850.50;;;20.32;81.41
43155;BME280;34212;51.018;13.586;2022-08-20T22:07:41;97844.81;;;20.34;81.72
43155;BME280;34212;51.018;13.586;2022-08-20T22:12:42;97841.56;;;20.32;81.65
43155;BME280;34212;51.018;13.586;2022-08-20T22:17:44;97838.25;;;20.29;81.57
43155;BME280;34212;51.018;13.586;2022-08-20T22:22:46;97835.22;;;20.26;81.52
43155;BME280;34212;51.018;13.586;2022-08-20T22:27:47;97838.41;;;20.23;81.53
43155;BME280;34212;51.018;13.586;2022-08-20T22:32:49;97842.41;;;20.20;81.64
43155;BME280;34212;51.018;13.586;2022-08-20T22:38:01;97845.59;;;20.17;81.82
43155;BME280;34212;51.018;13.586;2022-08-20T22:43:03;97838.06;;;20.19;81.50
43155;BME280;34212;51.018;13.586;2022-08-20T22:48:05;97838.06;;;20.19;81.68
43155;BME280;34212;51.018;13.586;2022-08-20T22:53:07;97838.06;;;20.19;81.71
43155;BME280;34212;51.018;13.586;2022-08-20T22:58:09;97844.31;;;20.20;81.64
43155;BME280;34212;51.018;13.586;2022-08-20T23:03:11;97835.94;;;20.21;81.79
43155;BME280;34212;51.018;13.586;2022-08-20T23:08:13;97841.34;;;20.21;81.87
43155;BME280;34212;51.018;13.586;2022-08-20T23:13:15;97834.63;;;20.24;81.69
43155;BME280;34212;51.018;13.586;2022-08-20T23:18:17;97832.72;;;20.24;81.72
43155;BME280;34212;51.018;13.586;2022-08-20T23:23:19;97831.09;;;20.23;81.70
43155;BME280;34212;51.018;13.586;2022-08-20T23:28:23;97837.81;;;20.21;81.65
43155;BME280;34212;51.018;13.586;2022-08-20T23:33:24;97834.53;;;20.19;81.82
43155;BME280;34212;51.018;13.586;2022-08-20T23:38:27;97822.06;;;20.18;81.91
43155;BME280;34212;51.018;13.586;2022-08-20T23:43:29;97826.91;;;20.16;81.96
43155;BME280;34212;51.018;13.586;2022-08-20T23:48:33;97827.94;;;20.15;81.94
43155;BME280;34212;51.018;13.586;2022-08-20T23:53:35;97818.19;;;20.14;81.71
43155;BME280;34212;51.018;13.586;2022-08-20T23:58:37;97827.13;;;20.14;81.80
